Time;durP1;ratioP1;P1;durP2;ratioP2;P2;SDS_P1;SDS_P2;PMS_P1;PMS_P2;Temp;Humidity;BMP_temperature;BMP_pressure;BME280_temperature;BME280_humidity;BME280_pressure;Samples;Min_cycle;Max_cycle;Signal;HPM_P1;HPM_P2
2023/02/11 00:00:23;;;;;;;34.78;17.70;;;6.30;99.90;;;;;;5004499;28;20025;-79
2023/02/11 00:02:48;;;;;;;27.20;16.08;;;6.30;99.90;;;;;;5016381;28;20126;-79
2023/02/11 00:05:14;;;;;;;23.00;13.65;;;6.30;99.90;;;;;;5014457;28;20538;-79
2023/02/11 00:07:40;;;;;;;27.23;14.88;;;6.30;99.90;;;;;;5020895;28;20030;-79
2023/02/11 00:10:06;;;;;;;30.10;15.32;;;6.30;99.90;;;;;;5015530;28;20113;-79
2023/02/11 00:12:35;;;;;;;31.42;15.73;;;6.30;99.90;;;;;;5026310;28;20025;-79
2023/02/11 00:15:01;;;;;;;29.17;13.45;;;6.40;99.90;;;;;;5027026;28;20034;-79
2023/02/11 00:17:27;;;;;;;25.92;14.73;;;6.30;99.90;;;;;;5018593;28;20041;-78
2023/02/11 00:19:53;;;;;;;23.17;11.77;;;6.30;99.90;;;;;;5028655;28;20029;-77
2023/02/11 00:22:19;;;;;;;24.48;12.35;;;6.40;99.90;;;;;;5008895;28;20036;-79
2023/02/11 00:24:45;;;;;;;21.30;10.60;;;6.30;99.90;;;;;;5028071;28;20042;-79
2023/02/11 00:27:10;;;;;;;21.73;10.30;;;6.40;99.90;;;;;;5020063;28;20114;-79
2023/02/11 00:29:37;;;;;;;24.40;9.15;;;6.40;99.90;;;;;;5002996;28;20450;-78
2023/02/11 00:32:04;;;;;;;19.25;9.77;;;6.40;99.90;;;;;;5019592;28;20028;-79
2023/02/11 00:34:34;;;;;;;17.42;9.10;;;6.30;99.90;;;;;;5039600;28;20386;-78
2023/02/11 00:37:01;;;;;;;19.50;9.02;;;6.40;99.90;;;;;;5029155;28;20056;-79
2023/02/11 00:39:27;;;;;;;20.33;9.07;;;6.40;99.90;;;;;;5023645;28;20418;-79
2023/02/11 00:41:52;;;;;;;14.15;7.78;;;6.40;99.90;;;;;;5022158;28;20034;-78
2023/02/11 00:44:18;;;;;;;18.85;7.68;;;6.40;99.90;;;;;;5026639;28;20565;-79
2023/02/11 00:46:46;;;;;;;14.68;7.68;;;6.40;99.90;;;;;;5029504;28;20105;-79
2023/02/11 00:49:13;;;;;;;17.35;8.02;;;6.40;99.90;;;;;;5028363;28;20112;-79
2023/02/11 00:51:40;;;;;;;17.67;8.75;;;6.40;99.90;;;;;;5012938;28;20398;-79
2023/02/11 00:54:06;;;;;;;17.58;7.75;;;6.40;99.90;;;;;;5021264;28;20021;-78
2023/02/11 00:56:32;;;;;;;15.75;8.20;;;6.40;99.90;;;;;;5038161;28;20048;-79
2023/02/11 00:58:57;;;;;;;24.27;9.35;;;6.40;99.90;;;;;;5047288;28;20065;-78
2023/02/11 01:01:23;;;;;;;19.10;7.75;;;6.40;99.90;;;;;;5042791;28;20109;-78
2023/02/11 01:03:49;;;;;;;24.45;8.82;;;6.40;99.90;;;;;;5037653;28;20120;-79
2023/02/11 01:06:15;;;;;;;13.32;6.60;;;6.40;99.90;;;;;;5039528;28;20033;-79
2023/02/11 01:08:41;;;;;;;15.35;6.97;;;6.40;99.90;;;;;;5043373;28;20036;-78
2023/02/11 01:11:12;;;;;;;15.25;7.00;;;6.40;99.90;;;;;;5040792;28;20025;-78
2023/02/11 01:13:38;;;;;;;17.05;6.90;;;6.40;99.90;;;;;;5039458;28;20061;-78
2023/02/11 01:16:07;;;;;;;19.70;7.68;;;6.30;99.90;;;;;;5040388;28;20486;-79
2023/02/11 01:18:33;;;;;;;13.27;6.43;;;6.40;99.90;;;;;;5035665;28;20044;-79
2023/02/11 01:20:58;;;;;;;18.60;6.50;;;6.30;99.90;;;;;;5023077;28;20070;-78
2023/02/11 01:23:24;;;;;;;13.25;5.60;;;6.30;99.90;;;;;;5045880;28;20124;-78
2023/02/11 01:25:51;;;;;;;22.15;6.90;;;6.30;99.90;;;;;;5046545;28;20484;-79
2023/02/11 01:28:19;;;;;;;12.73;6.47;;;6.30;99.90;;;;;;5036507;28;20386;-78
2023/02/11 01:30:45;;;;;;;15.80;5.95;;;6.30;99.90;;;;;;5053757;28;20116;-78
2023/02/11 01:33:11;;;;;;;13.43;5.95;;;6.30;99.90;;;;;;5038082;28;20156;-79
2023/02/11 01:35:37;;;;;;;14.63;5.72;;;6.30;99.90;;;;;;5043798;28;20477;-79
2023/02/11 01:38:05;;;;;;;10.73;4.55;;;6.20;99.90;;;;;;5046391;28;20033;-79
2023/02/11 01:40:31;;;;;;;11.23;5.15;;;6.20;99.90;;;;;;5038454;28;20025;-79
2023/02/11 01:42:57;;;;;;;15.02;5.10;;;6.20;99.90;;;;;;5045398;28;20036;-79
2023/02/11 01:45:45;;;;;;;11.55;5.13;;;6.20;99.90;;;;;;5039936;28;20025;-79
2023/02/11 01:48:14;;;;;;;16.08;5.75;;;6.10;99.90;;;;;;5037207;28;20021;-78
2023/02/11 01:50:43;;;;;;;16.40;5.03;;;6.20;99.90;;;;;;5033207;28;20026;-79
2023/02/11 01:58:42;;;;;;;15.15;5.78;;;6.30;99.90;;;;;;5042644;28;20033;-78
2023/02/11 02:01:09;;;;;;;21.00;7.63;;;6.30;99.90;;;;;;5046020;28;20049;-79
2023/02/11 02:03:38;;;;;;;14.32;6.03;;;6.30;99.90;;;;;;5040044;28;20120;-78
2023/02/11 02:06:25;;;;;;;17.10;7.15;;;6.20;99.90;;;;;;5042090;28;20051;-78
2023/02/11 02:09:04;;;;;;;16.63;6.05;;;6.20;99.90;;;;;;5036128;28;20156;-79
2023/02/11 02:11:30;;;;;;;18.23;5.63;;;6.20;99.90;;;;;;5043374;28;20037;-79
2023/02/11 02:13:56;;;;;;;13.35;5.93;;;6.20;99.90;;;;;;5037793;28;20306;-78
2023/02/11 02:16:28;;;;;;;13.73;5.20;;;6.20;99.90;;;;;;5042434;28;20163;-79
2023/02/11 02:19:06;;;;;;;18.63;5.55;;;6.20;99.90;;;;;;5036802;28;20080;-79
2023/02/11 02:21:53;;;;;;;15.02;6.07;;;6.20;99.90;;;;;;5037201;28;20533;-79
2023/02/11 02:24:38;;;;;;;15.93;4.90;;;6.10;99.90;;;;;;5038171;28;20025;-78
2023/02/11 02:27:21;;;;;;;16.75;5.78;;;6.10;99.90;;;;;;5037794;28;20458;-78
2023/02/11 02:30:08;;;;;;;13.45;4.95;;;6.10;99.90;;;;;;5040967;28;20074;-79
2023/02/11 02:32:52;;;;;;;20.65;5.95;;;6.10;99.90;;;;;;5041838;28;20029;-79
2023/02/11 02:35:39;;;;;;;15.88;4.68;;;6.10;99.90;;;;;;5034555;28;20383;-78
2023/02/11 02:38:07;;;;;;;18.25;4.82;;;6.20;99.90;;;;;;5038094;28;20074;-79
2023/02/11 02:41:02;;;;;;;9.60;4.82;;;6.20;99.90;;;;;;5038938;28;20029;-79
2023/02/11 02:43:29;;;;;;;17.02;4.32;;;6.20;99.90;;;;;;5035251;28;20112;-79
2023/02/11 02:45:55;;;;;;;8.85;2.85;;;6.20;99.90;;;;;;5036884;28;20032;-79
2023/02/11 02:48:34;;;;;;;15.98;5.07;;;6.10;99.90;;;;;;5038986;28;20036;-79
2023/02/11 02:51:18;;;;;;;13.60;4.87;;;6.20;99.90;;;;;;5038003;28;20020;-78
2023/02/11 02:53:50;;;;;;;17.33;6.10;;;6.20;99.90;;;;;;5039238;28;20287;-78
2023/02/11 02:56:31;;;;;;;17.70;5.32;;;6.20;99.90;;;;;;5044420;28;20072;-78
2023/02/11 02:59:04;;;;;;;12.30;4.22;;;6.20;99.90;;;;;;5043565;28;20037;-78
2023/02/11 03:01:49;;;;;;;16.80;4.85;;;6.20;99.90;;;;;;5052050;28;20044;-78
2023/02/11 03:04:35;;;;;;;15.30;5.05;;;6.20;99.90;;;;;;5033641;28;20083;-79
2023/02/11 03:07:24;;;;;;;16.10;5.10;;;6.20;99.90;;;;;;5035209;28;20037;-79
2023/02/11 03:10:24;;;;;;;16.52;4.90;;;6.20;99.90;;;;;;5036110;28;20029;-79
2023/02/11 03:12:52;;;;;;;14.57;4.45;;;6.30;99.90;;;;;;5041418;28;20029;-79
2023/02/11 03:15:20;;;;;;;9.02;3.42;;;6.20;99.90;;;;;;5040728;28;20021;-78
2023/02/11 03:17:49;;;;;;;10.13;2.60;;;6.20;99.90;;;;;;5029623;28;20121;-79
2023/02/11 03:20:18;;;;;;;18.65;4.43;;;6.20;99.90;;;;;;5044027;28;20072;-78
2023/02/11 03:22:56;;;;;;;13.13;3.97;;;6.20;99.90;;;;;;5039747;28;20432;-79
2023/02/11 03:25:29;;;;;;;10.15;3.72;;;6.20;99.90;;;;;;5039827;28;20099;-78
2023/02/11 03:28:11;;;;;;;15.60;4.78;;;6.20;99.90;;;;;;5039633;28;20021;-79
2023/02/11 03:30:50;;;;;;;11.38;3.83;;;6.20;99.90;;;;;;5035502;28;20033;-79
2023/02/11 03:33:27;;;;;;;10.07;3.85;;;6.20;99.90;;;;;;5038191;28;20021;-79
2023/02/11 03:35:59;;;;;;;12.52;3.47;;;6.10;99.90;;;;;;5033785;28;20029;-78
2023/02/11 03:38:30;;;;;;;17.08;3.97;;;6.20;99.90;;;;;;5036113;28;20433;-79
2023/02/11 03:40:57;;;;;;;9.82;3.20;;;6.10;99.90;;;;;;5039427;28;20037;-78
2023/02/11 03:43:41;;;;;;;6.45;2.13;;;6.10;99.90;;;;;;5038165;28;20028;-79
2023/02/11 03:46:09;;;;;;;11.07;3.38;;;6.10;99.90;;;;;;5035205;28;20047;-79
2023/02/11 03:48:41;;;;;;;12.90;3.72;;;6.10;99.90;;;;;;5033673;28;20381;-79
2023/02/11 03:51:08;;;;;;;15.73;4.97;;;6.10;99.90;;;;;;5036901;28;20100;-79
2023/02/11 03:53:37;;;;;;;10.77;3.72;;;6.10;99.90;;;;;;5037311;28;20037;-79
2023/02/11 03:56:08;;;;;;;8.30;3.05;;;6.00;99.90;;;;;;5035462;28;20504;-77
2023/02/11 03:58:35;;;;;;;15.40;5.22;;;6.10;99.90;;;;;;5035188;28;20143;-79
2023/02/11 04:01:01;;;;;;;11.90;5.43;;;6.10;99.90;;;;;;5034375;28;20029;-79
2023/02/11 04:03:27;;;;;;;10.40;4.00;;;6.10;99.90;;;;;;5039425;28;20091;-79
2023/02/11 04:05:53;;;;;;;12.77;4.22;;;6.10;99.90;;;;;;5033517;28;20482;-79
2023/02/11 04:08:19;;;;;;;15.10;4.38;;;6.10;99.90;;;;;;5027923;28;20033;-78
2023/02/11 04:10:45;;;;;;;10.05;3.90;;;6.10;99.90;;;;;;5036342;28;20499;-79
2023/02/11 04:13:11;;;;;;;11.25;3.50;;;6.10;99.90;;;;;;5043375;28;20112;-78
2023/02/11 04:15:36;;;;;;;12.45;2.97;;;6.00;99.90;;;;;;5034697;28;20028;-78
2023/02/11 04:18:02;;;;;;;12.80;4.55;;;6.00;99.90;;;;;;5037722;28;20425;-80
2023/02/11 04:20:29;;;;;;;16.15;4.97;;;6.00;99.90;;;;;;5041749;28;20025;-78
2023/02/11 04:22:54;;;;;;;20.52;6.47;;;6.10;99.90;;;;;;5033216;28;20033;-79
2023/02/11 04:25:20;;;;;;;10.45;3.88;;;6.10;99.90;;;;;;5036580;28;20478;-77
2023/02/11 04:27:45;;;;;;;10.60;4.20;;;6.00;99.90;;;;;;5038965;28;20431;-79
2023/02/11 04:30:12;;;;;;;12.95;5.50;;;6.10;99.90;;;;;;5039279;28;20032;-78
2023/02/11 04:32:38;;;;;;;11.15;4.05;;;6.10;99.90;;;;;;5038218;28;20021;-79
2023/02/11 04:35:04;;;;;;;9.43;3.67;;;6.10;99.90;;;;;;5036819;28;20497;-78
2023/02/11 04:37:30;;;;;;;15.50;6.32;;;6.00;99.90;;;;;;5036374;28;20037;-79
2023/02/11 04:39:56;;;;;;;13.52;4.88;;;6.10;99.90;;;;;;5036932;28;20049;-79
2023/02/11 04:42:21;;;;;;;10.70;4.00;;;6.10;99.90;;;;;;5037110;28;20025;-79
2023/02/11 04:44:47;;;;;;;16.50;6.22;;;6.00;99.90;;;;;;5044575;28;20036;-79
2023/02/11 04:47:14;;;;;;;19.08;6.80;;;6.00;99.90;;;;;;5036546;28;20108;-79
2023/02/11 04:49:40;;;;;;;16.33;6.85;;;6.10;99.90;;;;;;5040565;28;20040;-78
2023/02/11 04:52:07;;;;;;;12.57;5.32;;;6.10;99.90;;;;;;5034548;28;20159;-78
2023/02/11 04:54:32;;;;;;;19.67;6.57;;;6.10;99.90;;;;;;5038775;28;20436;-78
2023/02/11 04:56:58;;;;;;;19.15;6.53;;;6.10;99.90;;;;;;5032682;28;20176;-78
2023/02/11 04:59:24;;;;;;;13.98;5.45;;;6.00;99.90;;;;;;5037953;28;20470;-79
2023/02/11 05:01:50;;;;;;;15.18;6.72;;;6.00;99.90;;;;;;5040880;28;20461;-78
2023/02/11 05:04:16;;;;;;;23.73;8.43;;;6.10;99.90;;;;;;5039746;28;20099;-79
2023/02/11 05:06:42;;;;;;;19.52;7.57;;;6.10;99.90;;;;;;5036499;28;20047;-79
2023/02/11 05:09:13;;;;;;;22.05;8.15;;;6.10;99.90;;;;;;5041218;28;20029;-79
2023/02/11 05:11:38;;;;;;;17.15;6.65;;;6.10;99.90;;;;;;5042844;28;20071;-78
2023/02/11 05:14:05;;;;;;;20.23;7.95;;;6.00;99.90;;;;;;5039452;28;20480;-79
2023/02/11 05:16:32;;;;;;;21.00;8.07;;;6.10;99.90;;;;;;5045641;28;20041;-79
2023/02/11 05:18:57;;;;;;;19.95;7.82;;;6.10;99.90;;;;;;5039283;28;20022;-78
2023/02/11 05:21:24;;;;;;;19.45;8.50;;;6.10;99.90;;;;;;5038137;28;20056;-78
2023/02/11 05:23:49;;;;;;;16.88;8.13;;;6.10;99.90;;;;;;5040751;28;20273;-79
2023/02/11 05:26:16;;;;;;;19.63;9.45;;;6.10;99.90;;;;;;5039266;28;20346;-79
2023/02/11 05:28:42;;;;;;;16.98;7.55;;;6.10;99.90;;;;;;5040056;28;20128;-78
2023/02/11 05:31:08;;;;;;;18.27;6.43;;;6.10;99.90;;;;;;5036982;28;20544;-78
2023/02/11 05:33:34;;;;;;;16.55;6.55;;;6.00;99.90;;;;;;5037657;28;20028;-78
2023/02/11 05:36:05;;;;;;;9.45;5.25;;;6.10;99.90;;;;;;5038062;28;20037;-78
2023/02/11 05:38:32;;;;;;;17.35;7.65;;;6.00;99.90;;;;;;5041781;28;20037;-78
2023/02/11 05:40:57;;;;;;;15.23;7.15;;;6.00;99.90;;;;;;5041064;28;20094;-79
2023/02/11 05:43:23;;;;;;;13.13;6.45;;;6.00;99.90;;;;;;5036563;28;20025;-78
2023/02/11 05:45:49;;;;;;;12.82;5.60;;;6.00;99.90;;;;;;5035135;28;20042;-79
2023/02/11 05:48:15;;;;;;;8.18;3.70;;;6.00;99.90;;;;;;5039277;28;20033;-78
2023/02/11 05:50:41;;;;;;;13.93;5.63;;;6.00;99.90;;;;;;5039965;28;20060;-78
2023/02/11 05:53:06;;;;;;;17.17;7.82;;;6.00;99.90;;;;;;5037942;28;20052;-78
2023/02/11 05:55:32;;;;;;;22.08;9.82;;;6.00;99.90;;;;;;5040825;28;20057;-78
2023/02/11 05:57:58;;;;;;;19.73;9.50;;;6.00;99.90;;;;;;5035808;28;20034;-78
2023/02/11 06:00:24;;;;;;;15.80;7.88;;;6.00;99.90;;;;;;5053939;28;20040;-79
2023/02/11 06:02:50;;;;;;;23.23;10.23;;;6.00;99.90;;;;;;5036177;28;20104;-79
2023/02/11 06:05:16;;;;;;;23.13;10.45;;;6.00;99.90;;;;;;5039036;28;20017;-79
2023/02/11 06:07:41;;;;;;;13.55;7.28;;;6.00;99.90;;;;;;5036957;28;20021;-79
2023/02/11 06:10:08;;;;;;;19.10;8.90;;;6.00;99.90;;;;;;5046761;28;20025;-78
2023/02/11 06:12:36;;;;;;;21.75;9.45;;;6.00;99.90;;;;;;5028555;28;20064;-80
2023/02/11 06:15:02;;;;;;;18.80;9.35;;;6.00;99.90;;;;;;5042419;28;20056;-79
2023/02/11 06:17:32;;;;;;;13.38;8.25;;;6.00;99.90;;;;;;5039293;28;20431;-79
2023/02/11 06:19:59;;;;;;;14.80;6.57;;;6.00;99.90;;;;;;5043623;28;20048;-79
2023/02/11 06:22:26;;;;;;;13.20;5.57;;;6.00;99.90;;;;;;5037610;28;20518;-79
2023/02/11 06:24:52;;;;;;;15.25;8.93;;;6.00;99.90;;;;;;5039098;28;20083;-79
2023/02/11 06:27:17;;;;;;;14.05;7.32;;;6.00;99.90;;;;;;5038693;28;20489;-79
2023/02/11 06:29:44;;;;;;;17.48;9.63;;;6.00;99.90;;;;;;5042986;28;20032;-79
2023/02/11 06:32:10;;;;;;;17.65;10.55;;;6.00;99.90;;;;;;5045648;28;20382;-79
2023/02/11 06:34:36;;;;;;;21.80;11.18;;;6.00;99.90;;;;;;5036258;28;20033;-79
2023/02/11 06:37:02;;;;;;;18.92;9.63;;;6.10;99.90;;;;;;5045808;28;20033;-77
2023/02/11 06:39:27;;;;;;;18.35;9.30;;;6.00;99.90;;;;;;5038315;28;20429;-79
2023/02/11 06:41:53;;;;;;;17.80;9.82;;;6.00;99.90;;;;;;5036960;28;20029;-79
2023/02/11 06:44:19;;;;;;;15.63;6.95;;;6.00;99.90;;;;;;5054555;28;20504;-78
2023/02/11 06:46:44;;;;;;;19.83;11.18;;;6.00;99.90;;;;;;5046574;28;20037;-79
2023/02/11 06:49:10;;;;;;;19.02;9.32;;;6.10;99.90;;;;;;5036181;28;20116;-79
2023/02/11 06:51:36;;;;;;;18.30;8.50;;;6.00;99.90;;;;;;5038646;28;20102;-78
2023/02/11 06:54:05;;;;;;;17.45;9.55;;;6.00;99.90;;;;;;5034603;28;20383;-79
2023/02/11 06:56:31;;;;;;;19.70;10.30;;;6.00;99.90;;;;;;5037734;28;20099;-79
2023/02/11 06:58:56;;;;;;;21.45;10.35;;;6.00;99.90;;;;;;5045151;28;20065;-78
2023/02/11 07:01:23;;;;;;;23.48;11.43;;;6.00;99.90;;;;;;5037861;28;20031;-79
2023/02/11 07:03:50;;;;;;;23.33;12.80;;;6.10;99.90;;;;;;5037231;28;20067;-79
2023/02/11 07:06:21;;;;;;;22.25;12.63;;;6.10;99.90;;;;;;5036111;28;20022;-80
2023/02/11 07:08:47;;;;;;;26.80;13.98;;;6.10;99.90;;;;;;5053277;28;20380;-78
2023/02/11 07:11:19;;;;;;;33.63;16.33;;;6.10;99.90;;;;;;5028780;28;20031;-80
2023/02/11 07:13:46;;;;;;;32.63;16.05;;;6.10;99.90;;;;;;5032363;28;20038;-79
2023/02/11 07:16:14;;;;;;;26.80;14.77;;;6.10;99.90;;;;;;5040354;28;20047;-79
2023/02/11 07:18:40;;;;;;;37.33;19.23;;;6.20;99.90;;;;;;5036923;28;20335;-79
2023/02/11 07:21:07;;;;;;;29.40;16.23;;;6.20;99.90;;;;;;5035945;28;20470;-79
2023/02/11 07:23:34;;;;;;;37.10;17.67;;;6.20;99.90;;;;;;5036973;28;20474;-79
2023/02/11 07:26:08;;;;;;;36.17;19.67;;;6.20;99.90;;;;;;5044677;28;20029;-79
2023/02/11 07:28:36;;;;;;;38.63;20.20;;;6.20;99.90;;;;;;5022309;28;20671;-80
2023/02/11 07:31:09;;;;;;;40.13;19.88;;;6.20;99.90;;;;;;5035740;28;20629;-79
2023/02/11 07:33:36;;;;;;;43.33;21.63;;;6.20;99.90;;;;;;5043176;28;20028;-80
2023/02/11 07:36:03;;;;;;;40.63;19.52;;;6.20;99.90;;;;;;5044693;28;20050;-80
2023/02/11 07:38:32;;;;;;;44.20;19.58;;;6.20;99.90;;;;;;5043482;28;20052;-80
2023/02/11 07:41:04;;;;;;;41.67;21.73;;;6.30;99.90;;;;;;5035591;28;20034;-80
2023/02/11 07:43:34;;;;;;;41.95;19.20;;;6.30;99.90;;;;;;5035564;28;20280;-80
2023/02/11 07:46:06;;;;;;;48.97;24.00;;;6.30;99.90;;;;;;5043348;28;20276;-79
2023/02/11 07:48:32;;;;;;;49.65;23.38;;;6.30;99.90;;;;;;5036645;28;20056;-80
2023/02/11 07:51:09;;;;;;;35.47;19.77;;;6.30;99.90;;;;;;5044590;28;20029;-79
2023/02/11 07:53:35;;;;;;;53.55;24.10;;;6.30;99.90;;;;;;5036859;28;20025;-80
2023/02/11 07:56:02;;;;;;;45.13;22.48;;;6.40;99.90;;;;;;5022039;28;20148;-80
2023/02/11 07:58:28;;;;;;;38.22;20.30;;;6.30;99.90;;;;;;5038650;28;20033;-80
2023/02/11 08:00:54;;;;;;;47.60;23.63;;;6.40;99.90;;;;;;5038605;28;20025;-79
2023/02/11 08:03:19;;;;;;;41.33;22.02;;;6.40;99.90;;;;;;5021436;28;20022;-79
2023/02/11 08:05:45;;;;;;;42.70;22.35;;;6.40;99.90;;;;;;5039528;28;20028;-80
2023/02/11 08:08:10;;;;;;;42.08;22.77;;;6.40;99.90;;;;;;5040036;28;20179;-79
2023/02/11 08:10:36;;;;;;;48.83;22.63;;;6.50;99.90;;;;;;5035264;28;20059;-79
2023/02/11 08:13:02;;;;;;;42.25;22.80;;;6.50;99.90;;;;;;5044844;28;20406;-79
2023/02/11 08:15:27;;;;;;;52.55;25.95;;;6.60;99.90;;;;;;5019793;28;20072;-79
2023/02/11 08:17:53;;;;;;;49.72;25.88;;;6.60;99.90;;;;;;5036013;28;20035;-79
2023/02/11 08:20:19;;;;;;;51.45;24.65;;;6.60;99.90;;;;;;5035830;28;20028;-80
2023/02/11 08:22:44;;;;;;;50.67;25.55;;;6.70;99.90;;;;;;5035312;28;20044;-80
2023/02/11 08:25:10;;;;;;;41.63;21.90;;;6.70;99.90;;;;;;5038363;28;20255;-79
2023/02/11 08:27:36;;;;;;;49.42;23.65;;;6.70;99.90;;;;;;5033387;28;20025;-79
2023/02/11 08:30:01;;;;;;;48.13;24.33;;;6.70;99.90;;;;;;5035369;28;20534;-80
2023/02/11 08:32:27;;;;;;;45.53;23.48;;;6.80;99.90;;;;;;5043265;28;20192;-80
2023/02/11 08:34:53;;;;;;;46.30;23.77;;;6.80;99.90;;;;;;5038869;28;20431;-80
2023/02/11 08:37:19;;;;;;;53.30;25.52;;;6.80;99.90;;;;;;5041576;28;20044;-80
2023/02/11 08:39:46;;;;;;;49.60;24.50;;;6.80;99.90;;;;;;5038349;28;20036;-80
2023/02/11 08:42:12;;;;;;;56.13;30.42;;;6.80;99.90;;;;;;5042677;28;20466;-79
2023/02/11 08:44:38;;;;;;;53.38;27.48;;;6.80;99.90;;;;;;5043270;28;20111;-79
2023/02/11 08:47:04;;;;;;;51.13;26.70;;;6.90;99.90;;;;;;5039050;28;20034;-79
2023/02/11 08:49:31;;;;;;;52.95;27.05;;;6.90;99.90;;;;;;5028009;28;20044;-80
2023/02/11 08:52:01;;;;;;;49.63;25.52;;;6.90;99.90;;;;;;5029849;28;20060;-79
2023/02/11 08:54:26;;;;;;;49.80;27.17;;;7.00;99.90;;;;;;5042255;28;20465;-79
2023/02/11 08:56:52;;;;;;;51.22;25.90;;;7.00;99.90;;;;;;5040175;28;20037;-79
2023/02/11 08:59:18;;;;;;;49.65;24.65;;;7.00;99.90;;;;;;5028495;28;20525;-78
2023/02/11 09:01:45;;;;;;;46.70;26.95;;;7.00;99.90;;;;;;5038230;28;20061;-79
2023/02/11 09:04:12;;;;;;;57.42;29.50;;;7.00;99.90;;;;;;5038931;28;20045;-79
2023/02/11 09:06:37;;;;;;;55.40;29.05;;;7.00;99.90;;;;;;5038470;28;20410;-79
2023/02/11 09:09:04;;;;;;;53.38;29.30;;;7.00;99.90;;;;;;5045919;28;20053;-79
2023/02/11 09:11:35;;;;;;;57.83;31.52;;;7.00;99.90;;;;;;5038713;28;20486;-79
2023/02/11 09:14:02;;;;;;;48.92;29.48;;;7.00;99.90;;;;;;5022636;28;20033;-80
2023/02/11 09:16:30;;;;;;;45.85;24.15;;;7.00;99.90;;;;;;5023068;28;20132;-79
2023/02/11 09:18:57;;;;;;;52.95;27.63;;;7.10;99.90;;;;;;5046586;28;20037;-79
2023/02/11 09:21:23;;;;;;;46.70;24.38;;;7.10;99.90;;;;;;5040697;28;20488;-79
2023/02/11 09:23:49;;;;;;;50.15;26.38;;;7.10;99.90;;;;;;5042934;28;20025;-79
2023/02/11 09:26:35;;;;;;;55.92;30.08;;;7.10;99.90;;;;;;5036737;28;20525;-79
2023/02/11 09:29:02;;;;;;;53.28;29.90;;;7.20;99.90;;;;;;5041526;28;20025;-79
2023/02/11 09:31:30;;;;;;;54.92;30.05;;;7.20;99.90;;;;;;5046287;28;20048;-79
2023/02/11 09:33:59;;;;;;;60.75;30.83;;;7.20;99.90;;;;;;5040755;28;20021;-79
2023/02/11 09:36:31;;;;;;;47.55;26.20;;;7.10;99.90;;;;;;5039808;28;20041;-79
2023/02/11 09:38:58;;;;;;;53.10;27.73;;;7.20;99.90;;;;;;5041226;28;20022;-79
2023/02/11 09:41:30;;;;;;;62.42;30.77;;;7.20;99.90;;;;;;5038066;28;20033;-79
2023/02/11 09:43:59;;;;;;;48.55;27.50;;;7.20;99.90;;;;;;5036656;28;20032;-79
2023/02/11 09:46:28;;;;;;;50.65;29.00;;;7.30;99.90;;;;;;5035310;28;20512;-80
2023/02/11 09:48:55;;;;;;;56.38;30.83;;;7.30;99.90;;;;;;5038125;28;20496;-79
2023/02/11 09:51:23;;;;;;;55.33;29.17;;;7.30;99.90;;;;;;5038887;28;20021;-79
2023/02/11 09:53:56;;;;;;;55.08;27.45;;;7.30;99.90;;;;;;5038748;28;20370;-79
2023/02/11 09:56:23;;;;;;;53.08;28.27;;;7.30;99.90;;;;;;5041726;28;20052;-79
2023/02/11 09:58:49;;;;;;;65.00;32.22;;;7.40;99.90;;;;;;5040584;28;20032;-79
2023/02/11 10:01:36;;;;;;;65.95;33.22;;;7.40;99.90;;;;;;5036221;28;20457;-79
2023/02/11 10:04:27;;;;;;;47.30;26.23;;;7.30;99.90;;;;;;5038589;28;20033;-80
2023/02/11 10:07:20;;;;;;;57.38;27.52;;;7.40;99.90;;;;;;5037846;28;20489;-79
2023/02/11 10:10:22;;;;;;;53.55;27.85;;;7.40;99.90;;;;;;5040776;28;20025;-78
2023/02/11 10:12:57;;;;;;;62.00;31.65;;;7.50;99.90;;;;;;5040787;28;20064;-79
2023/02/11 10:15:50;;;;;;;54.83;28.63;;;7.40;99.90;;;;;;5036455;28;20371;-80
2023/02/11 10:18:33;;;;;;;57.78;30.65;;;7.50;99.90;;;;;;5041885;28;20044;-79
2023/02/11 10:21:22;;;;;;;69.28;34.33;;;7.40;99.90;;;;;;5037546;28;20110;-79
2023/02/11 10:23:53;;;;;;;62.80;31.63;;;7.50;99.90;;;;;;5032351;28;20200;-80
2023/02/11 10:26:19;;;;;;;57.65;30.77;;;7.50;99.90;;;;;;5042703;28;20028;-79
2023/02/11 10:28:52;;;;;;;65.80;34.83;;;7.50;99.90;;;;;;5046764;28;20033;-79
2023/02/11 10:31:25;;;;;;;67.28;33.03;;;7.50;99.90;;;;;;5038441;28;20105;-79
2023/02/11 10:34:00;;;;;;;67.45;32.60;;;7.60;99.90;;;;;;5036583;28;20500;-80
2023/02/11 10:36:36;;;;;;;58.60;32.50;;;7.70;99.90;;;;;;5042506;28;20093;-79
2023/02/11 10:39:11;;;;;;;61.20;31.90;;;7.70;99.90;;;;;;5032012;28;20025;-80
2023/02/11 10:41:59;;;;;;;59.78;33.35;;;7.70;99.90;;;;;;5037291;28;20021;-78
2023/02/11 10:44:32;;;;;;;63.40;32.78;;;7.70;99.90;;;;;;5040228;28;20482;-79
2023/02/11 10:47:03;;;;;;;59.55;31.70;;;7.80;99.90;;;;;;5036904;28;20086;-79
2023/02/11 10:49:42;;;;;;;58.67;32.92;;;7.80;99.90;;;;;;5038494;28;20025;-79
2023/02/11 10:52:13;;;;;;;59.78;32.67;;;7.80;99.90;;;;;;5039148;28;20036;-79
2023/02/11 10:54:38;;;;;;;57.35;31.95;;;7.90;99.90;;;;;;5037075;28;20500;-79
2023/02/11 10:57:04;;;;;;;58.65;31.50;;;7.90;99.90;;;;;;5044734;28;20044;-79
2023/02/11 10:59:37;;;;;;;53.40;28.92;;;7.90;99.90;;;;;;5041876;28;20031;-80
2023/02/11 11:02:33;;;;;;;54.30;30.80;;;8.00;99.90;;;;;;5042099;28;20030;-79
2023/02/11 11:05:03;;;;;;;50.22;30.02;;;8.10;99.90;;;;;;5040790;28;20086;-79
2023/02/11 11:07:32;;;;;;;51.13;29.23;;;8.10;99.90;;;;;;5044533;28;20032;-79
2023/02/11 11:10:23;;;;;;;53.50;30.50;;;8.10;99.90;;;;;;5036076;28;20037;-79
2023/02/11 11:12:49;;;;;;;42.60;27.63;;;8.10;99.90;;;;;;5040238;28;20017;-79
2023/02/11 11:15:18;;;;;;;50.05;27.42;;;8.20;99.90;;;;;;5035789;28;20444;-79
2023/02/11 11:17:45;;;;;;;52.28;29.73;;;8.20;99.90;;;;;;5025995;28;20158;-80
2023/02/11 11:20:31;;;;;;;49.65;28.98;;;8.10;99.90;;;;;;5035595;28;20025;-79
2023/02/11 11:23:15;;;;;;;47.88;29.95;;;8.20;99.90;;;;;;5036604;28;20029;-79
2023/02/11 11:25:45;;;;;;;51.03;30.63;;;8.20;99.90;;;;;;5035031;28;20033;-79
2023/02/11 11:28:39;;;;;;;52.00;29.88;;;8.20;99.90;;;;;;5043349;28;20092;-79
2023/02/11 11:31:13;;;;;;;50.53;29.83;;;8.30;99.90;;;;;;5015377;28;20499;-79
2023/02/11 11:33:43;;;;;;;46.55;28.02;;;8.30;99.90;;;;;;5027144;28;20115;-79
2023/02/11 11:36:12;;;;;;;43.67;29.58;;;8.40;99.90;;;;;;5036663;28;20041;-79
2023/02/11 11:38:45;;;;;;;50.17;30.45;;;8.40;99.90;;;;;;5023660;28;20498;-79
2023/02/11 11:41:15;;;;;;;46.20;27.88;;;8.30;99.90;;;;;;5036157;28;20021;-79
2023/02/11 11:43:54;;;;;;;48.58;28.83;;;8.40;99.90;;;;;;5036571;28;20029;-79
2023/02/11 11:46:37;;;;;;;43.45;25.65;;;8.40;99.90;;;;;;5035273;28;20134;-79
2023/02/11 11:49:29;;;;;;;42.38;28.38;;;8.50;99.90;;;;;;5022184;28;20029;-79
2023/02/11 11:52:33;;;;;;;44.53;27.35;;;8.50;99.90;;;;;;5036948;28;20380;-79
2023/02/11 11:55:09;;;;;;;48.15;30.58;;;8.50;99.90;;;;;;4968300;28;20129;-79
2023/02/11 11:57:37;;;;;;;41.72;28.02;;;8.40;99.90;;;;;;4969863;28;20061;-79
2023/02/11 12:00:03;;;;;;;39.45;24.52;;;8.40;99.90;;;;;;4984681;28;20041;-79
2023/02/11 12:02:34;;;;;;;46.78;28.73;;;8.50;99.90;;;;;;4985440;28;20042;-79
2023/02/11 12:05:12;;;;;;;36.55;24.38;;;8.50;99.90;;;;;;4965149;28;20023;-79
2023/02/11 12:07:59;;;;;;;34.72;23.58;;;8.50;99.90;;;;;;4960586;28;20454;-79
2023/02/11 12:11:15;;;;;;;38.47;25.73;;;8.60;99.90;;;;;;4962305;28;20126;-79
2023/02/11 12:14:10;;;;;;;36.88;23.67;;;8.60;99.90;;;;;;4966277;28;20068;-79
2023/02/11 12:16:57;;;;;;;37.67;23.17;;;8.60;99.90;;;;;;4984732;28;20105;-79
2023/02/11 12:19:28;;;;;;;34.17;22.73;;;8.60;99.90;;;;;;4963590;28;20038;-79
2023/02/11 12:22:03;;;;;;;33.03;21.08;;;8.60;99.90;;;;;;4961563;28;20059;-79
2023/02/11 12:24:29;;;;;;;35.92;22.35;;;8.70;99.90;;;;;;4984945;28;20082;-79
2023/02/11 12:27:05;;;;;;;32.30;21.17;;;8.70;99.90;;;;;;4985340;28;20034;-79
2023/02/11 12:29:48;;;;;;;30.90;20.38;;;8.70;99.90;;;;;;4960647;28;20027;-79
2023/02/11 12:32:46;;;;;;;30.30;19.73;;;8.80;99.90;;;;;;5020334;28;20473;-79
2023/02/11 12:35:18;;;;;;;33.15;18.33;;;8.80;99.90;;;;;;5033827;28;20048;-79
2023/02/11 12:38:14;;;;;;;25.75;18.55;;;9.00;99.90;;;;;;5044562;28;20463;-79
2023/02/11 12:40:59;;;;;;;27.95;18.73;;;9.20;99.90;;;;;;5036848;28;20493;-79
2023/02/11 12:43:35;;;;;;;30.90;18.80;;;9.30;99.90;;;;;;5035697;28;20087;-78
2023/02/11 12:46:10;;;;;;;31.35;19.88;;;9.30;99.90;;;;;;5035140;28;20037;-78
2023/02/11 12:48:46;;;;;;;36.63;21.10;;;9.40;99.90;;;;;;5037349;28;20026;-78
2023/02/11 12:51:13;;;;;;;26.00;18.58;;;9.40;99.90;;;;;;5040658;28;20022;-79
2023/02/11 12:54:07;;;;;;;25.77;17.30;;;9.50;99.90;;;;;;5044133;28;20029;-78
2023/02/11 12:56:48;;;;;;;25.52;16.63;;;9.70;99.90;;;;;;5034193;28;20471;-78
2023/02/11 12:59:25;;;;;;;23.50;16.15;;;9.70;99.90;;;;;;5038125;28;20036;-78
2023/02/11 13:01:52;;;;;;;27.08;17.20;;;9.60;99.90;;;;;;5041169;28;20038;-78
2023/02/11 13:04:37;;;;;;;24.40;16.88;;;9.70;99.90;;;;;;5021246;28;20429;-78
2023/02/11 13:07:41;;;;;;;22.02;15.13;;;9.70;99.90;;;;;;5032049;28;20025;-77